sensor_id;sensor_type;location;lat;lon;timestamp;temperature;humidity
35633;DHT22;21754;48.216;-1.628;2022-08-20T01:28:25;19.40;99.90
35633;DHT22;21754;48.216;-1.628;2022-08-20T01:30:52;19.00;99.90
35633;DHT22;21754;48.216;-1.628;2022-08-20T01:33:18;19.00;99.90
35633;DHT22;21754;48.216;-1.628;2022-08-20T01:35:45;19.00;99.90
35633;DHT22;21754;48.216;-1.628;2022-08-20T01:38:11;19.00;99.90
35633;DHT22;21754;48.216;-1.628;2022-08-20T01:43:32;19.00;99.90
35633;DHT22;21754;48.216;-1.628;2022-08-20T01:45:58;19.00;99.90
35633;DHT22;21754;48.216;-1.628;2022-08-20T01:48:24;19.00;99.90
35633;DHT22;21754;48.216;-1.628;2022-08-20T01:51:01;19.00;99.90
35633;DHT22;21754;48.216;-1.628;2022-08-20T01:53:35;19.00;99.90
35633;DHT22;21754;48.216;-1.628;2022-08-20T01:56:04;18.90;99.90
35633;DHT22;21754;48.216;-1.628;2022-08-20T02:00:56;18.90;99.90
35633;DHT22;21754;48.216;-1.628;2022-08-20T02:03:22;18.80;99.90
35633;DHT22;21754;48.216;-1.628;2022-08-20T02:05:48;18.80;99.90
35633;DHT22;21754;48.216;-1.628;2022-08-20T02:08:14;18.70;99.90
35633;DHT22;21754;48.216;-1.628;2022-08-20T02:10:39;18.70;99.90
35633;DHT22;21754;48.216;-1.628;2022-08-20T02:13:05;18.60;99.90
35633;DHT22;21754;48.216;-1.628;2022-08-20T02:15:35;18.60;99.90
35633;DHT22;21754;48.216;-1.628;2022-08-20T02:18:07;18.60;99.90
35633;DHT22;21754;48.216;-1.628;2022-08-20T02:20:33;18.60;99.90
35633;DHT22;21754;48.216;-1.628;2022-08-20T02:23:00;18.60;99.90
35633;DHT22;21754;48.216;-1.628;2022-08-20T02:25:28;18.60;99.90
35633;DHT22;21754;48.216;-1.628;2022-08-20T02:27:56;18.50;99.90
35633;DHT22;21754;48.216;-1.628;2022-08-20T02:30:32;18.50;99.90
35633;DHT22;21754;48.216;-1.628;2022-08-20T02:33:00;18.50;99.90
35633;DHT22;21754;48.216;-1.628;2022-08-20T02:35:27;18.50;99.90
35633;DHT22;21754;48.216;-1.628;2022-08-20T02:37:53;18.50;99.90
35633;DHT22;21754;48.216;-1.628;2022-08-20T02:40:21;18.50;99.90
35633;DHT22;21754;48.216;-1.628;2022-08-20T02:42:47;18.50;99.90
35633;DHT22;21754;48.216;-1.628;2022-08-20T08:53:39;18.40;99.90
35633;DHT22;21754;48.216;-1.628;2022-08-20T09:01:13;21.00;99.90
35633;DHT22;21754;48.216;-1.628;2022-08-20T09:03:40;21.20;99.90
35633;DHT22;21754;48.216;-1.628;2022-08-20T09:06:17;21.30;99.90
35633;DHT22;21754;48.216;-1.628;2022-08-20T09:09:04;21.40;99.90
35633;DHT22;21754;48.216;-1.628;2022-08-20T09:13:56;21.40;99.90
35633;DHT22;21754;48.216;-1.628;2022-08-20T09:18:50;21.60;99.90
35633;DHT22;21754;48.216;-1.628;2022-08-20T09:26:09;22.00;99.90
35633;DHT22;21754;48.216;-1.628;2022-08-20T09:57:50;22.70;99.90
35633;DHT22;21754;48.216;-1.628;2022-08-20T10:00:17;22.20;99.90
35633;DHT22;21754;48.216;-1.628;2022-08-20T10:02:44;22.40;99.90
35633;DHT22;21754;48.216;-1.628;2022-08-20T10:51:39;22.40;99.90
35633;DHT22;21754;48.216;-1.628;2022-08-20T10:54:05;23.10;99.90
35633;DHT22;21754;48.216;-1.628;2022-08-20T12:39:32;23.20;99.90
35633;DHT22;21754;48.216;-1.628;2022-08-20T12:42:00;25.10;99.90
35633;DHT22;21754;48.216;-1.628;2022-08-20T12:44:28;25.00;99.90
35633;DHT22;21754;48.216;-1.628;2022-08-20T12:47:15;25.00;99.90
35633;DHT22;21754;48.216;-1.628;2022-08-20T12:49:44;25.10;99.90
35633;DHT22;21754;48.216;-1.628;2022-08-20T12:54:39;25.10;99.90
35633;DHT22;21754;48.216;-1.628;2022-08-20T12:57:06;25.20;99.90
35633;DHT22;21754;48.216;-1.628;2022-08-20T13:01:58;25.30;99.90
35633;DHT22;21754;48.216;-1.628;2022-08-20T13:04:23;25.50;99.90
35633;DHT22;21754;48.216;-1.628;2022-08-20T13:06:49;25.30;99.90
35633;DHT22;21754;48.216;-1.628;2022-08-20T13:09:15;25.30;99.90
35633;DHT22;21754;48.216;-1.628;2022-08-20T13:11:41;25.20;99.90
35633;DHT22;21754;48.216;-1.628;2022-08-20T13:14:07;25.00;99.90
35633;DHT22;21754;48.216;-1.628;2022-08-20T13:16:33;25.00;99.90
35633;DHT22;21754;48.216;-1.628;2022-08-20T13:18:59;25.20;99.90
35633;DHT22;21754;48.216;-1.628;2022-08-20T13:21:25;25.40;99.90
35633;DHT22;21754;48.216;-1.628;2022-08-20T13:23:50;25.50;99.90
35633;DHT22;21754;48.216;-1.628;2022-08-20T13:26:16;25.70;99.90
35633;DHT22;21754;48.216;-1.628;2022-08-20T13:31:08;25.90;99.90
35633;DHT22;21754;48.216;-1.628;2022-08-20T13:33:33;26.00;99.90
35633;DHT22;21754;48.216;-1.628;2022-08-20T13:35:59;26.10;99.90
35633;DHT22;21754;48.216;-1.628;2022-08-20T13:38:25;26.20;99.90
35633;DHT22;21754;48.216;-1.628;2022-08-20T13:40:50;26.10;99.90
35633;DHT22;21754;48.216;-1.628;2022-08-20T13:43:16;26.10;99.90
35633;DHT22;21754;48.216;-1.628;2022-08-20T13:45:42;26.00;99.90
35633;DHT22;21754;48.216;-1.628;2022-08-20T13:48:08;26.20;99.90
35633;DHT22;21754;48.216;-1.628;2022-08-20T13:50:33;26.40;99.90
35633;DHT22;21754;48.216;-1.628;2022-08-20T13:52:59;26.50;99.90
35633;DHT22;21754;48.216;-1.628;2022-08-20T13:55:26;26.50;99.90
35633;DHT22;21754;48.216;-1.628;2022-08-20T13:57:53;26.50;99.90
35633;DHT22;21754;48.216;-1.628;2022-08-20T14:00:28;26.50;99.90
35633;DHT22;21754;48.216;-1.628;2022-08-20T14:02:54;26.50;99.90
35633;DHT22;21754;48.216;-1.628;2022-08-20T14:05:20;26.50;99.90
35633;DHT22;21754;48.216;-1.628;2022-08-20T14:07:46;26.60;99.90
35633;DHT22;21754;48.216;-1.628;2022-08-20T14:10:18;26.60;99.90
35633;DHT22;21754;48.216;-1.628;2022-08-20T14:12:45;26.70;99.90
35633;DHT22;21754;48.216;-1.628;2022-08-20T14:15:11;26.80;99.90
35633;DHT22;21754;48.216;-1.628;2022-08-20T14:17:41;26.80;99.90
35633;DHT22;21754;48.216;-1.628;2022-08-20T14:20:14;26.80;99.90
35633;DHT22;21754;48.216;-1.628;2022-08-20T14:22:40;26.70;99.90
35633;DHT22;21754;48.216;-1.628;2022-08-20T14:25:07;26.70;99.90
35633;DHT22;21754;48.216;-1.628;2022-08-20T14:27:34;26.90;99.90
35633;DHT22;21754;48.216;-1.628;2022-08-20T14:30:02;27.10;99.90
35633;DHT22;21754;48.216;-1.628;2022-08-20T14:32:28;27.20;99.90
35633;DHT22;21754;48.216;-1.628;2022-08-20T14:34:54;27.30;99.90
35633;DHT22;21754;48.216;-1.628;2022-08-20T14:37:26;27.30;98.80
35633;DHT22;21754;48.216;-1.628;2022-08-20T14:39:54;27.40;99.90
35633;DHT22;21754;48.216;-1.628;2022-08-20T14:42:22;27.50;99.90
35633;DHT22;21754;48.216;-1.628;2022-08-20T14:44:49;27.70;99.90
35633;DHT22;21754;48.216;-1.628;2022-08-20T14:49:43;28.00;99.90
35633;DHT22;21754;48.216;-1.628;2022-08-20T14:52:10;28.00;99.90
35633;DHT22;21754;48.216;-1.628;2022-08-20T14:54:36;28.00;99.90
35633;DHT22;21754;48.216;-1.628;2022-08-20T14:57:02;27.80;99.60
35633;DHT22;21754;48.216;-1.628;2022-08-20T14:59:28;27.90;99.90
35633;DHT22;21754;48.216;-1.628;2022-08-20T15:01:54;28.10;99.90
35633;DHT22;21754;48.216;-1.628;2022-08-20T15:04:20;28.20;99.90
35633;DHT22;21754;48.216;-1.628;2022-08-20T15:06:46;28.30;99.90
35633;DHT22;21754;48.216;-1.628;2022-08-20T15:09:12;28.40;99.90
35633;DHT22;21754;48.216;-1.628;2022-08-20T15:11:38;28.50;99.90
35633;DHT22;21754;48.216;-1.628;2022-08-20T15:14:06;28.40;96.40
35633;DHT22;21754;48.216;-1.628;2022-08-20T15:16:32;28.50;96.90
35633;DHT22;21754;48.216;-1.628;2022-08-20T15:18:57;28.40;94.20
35633;DHT22;21754;48.216;-1.628;2022-08-20T15:21:23;28.30;98.60
35633;DHT22;21754;48.216;-1.628;2022-08-20T15:23:48;28.40;96.50
35633;DHT22;21754;48.216;-1.628;2022-08-20T15:26:14;28.30;92.50
35633;DHT22;21754;48.216;-1.628;2022-08-20T15:28:40;28.30;97.30
35633;DHT22;21754;48.216;-1.628;2022-08-20T15:31:12;28.30;94.30
35633;DHT22;21754;48.216;-1.628;2022-08-20T15:33:38;28.20;96.50
35633;DHT22;21754;48.216;-1.628;2022-08-20T15:36:05;28.10;93.90
35633;DHT22;21754;48.216;-1.628;2022-08-20T15:38:31;28.20;94.80
35633;DHT22;21754;48.216;-1.628;2022-08-20T15:40:58;28.20;95.10
35633;DHT22;21754;48.216;-1.628;2022-08-20T15:43:28;28.20;95.20
35633;DHT22;21754;48.216;-1.628;2022-08-20T15:45:56;28.20;96.70
35633;DHT22;21754;48.216;-1.628;2022-08-20T15:48:29;28.30;98.80
35633;DHT22;21754;48.216;-1.628;2022-08-20T15:51:17;28.40;95.60
35633;DHT22;21754;48.216;-1.628;2022-08-20T15:57:00;28.30;93.50
35633;DHT22;21754;48.216;-1.628;2022-08-20T15:59:34;28.30;93.10
35633;DHT22;21754;48.216;-1.628;2022-08-20T16:08:11;28.50;99.40
35633;DHT22;21754;48.216;-1.628;2022-08-20T16:15:59;28.80;89.20
35633;DHT22;21754;48.216;-1.628;2022-08-20T16:18:30;28.80;92.60
35633;DHT22;21754;48.216;-1.628;2022-08-20T16:20:56;28.70;92.00
35633;DHT22;21754;48.216;-1.628;2022-08-20T16:23:36;28.90;92.50
35633;DHT22;21754;48.216;-1.628;2022-08-20T16:29:53;29.30;94.50
35633;DHT22;21754;48.216;-1.628;2022-08-20T16:32:06;29.30;94.80
35633;DHT22;21754;48.216;-1.628;2022-08-20T16:37:29;29.40;96.30
35633;DHT22;21754;48.216;-1.628;2022-08-20T16:40:33;29.30;90.50
35633;DHT22;21754;48.216;-1.628;2022-08-20T16:43:03;29.40;92.00
35633;DHT22;21754;48.216;-1.628;2022-08-20T16:45:37;29.50;95.00
35633;DHT22;21754;48.216;-1.628;2022-08-20T16:48:07;29.50;94.30
35633;DHT22;21754;48.216;-1.628;2022-08-20T16:50:34;29.60;93.60
35633;DHT22;21754;48.216;-1.628;2022-08-20T16:53:01;29.70;94.10
35633;DHT22;21754;48.216;-1.628;2022-08-20T16:55:27;29.80;91.80
35633;DHT22;21754;48.216;-1.628;2022-08-20T16:57:53;29.90;90.40
35633;DHT22;21754;48.216;-1.628;2022-08-20T17:05:17;30.10;93.00
35633;DHT22;21754;48.216;-1.628;2022-08-20T17:07:46;30.10;91.90
35633;DHT22;21754;48.216;-1.628;2022-08-20T17:10:19;29.90;81.20
35633;DHT22;21754;48.216;-1.628;2022-08-20T17:12:54;29.70;90.40
35633;DHT22;21754;48.216;-1.628;2022-08-20T17:15:26;29.50;87.70
35633;DHT22;21754;48.216;-1.628;2022-08-20T17:17:53;29.40;90.10
35633;DHT22;21754;48.216;-1.628;2022-08-20T17:20:22;29.40;90.60
35633;DHT22;21754;48.216;-1.628;2022-08-20T17:22:50;29.30;91.70
35633;DHT22;21754;48.216;-1.628;2022-08-20T17:25:31;29.20;92.00
35633;DHT22;21754;48.216;-1.628;2022-08-20T17:27:58;29.10;91.10
35633;DHT22;21754;48.216;-1.628;2022-08-20T17:30:37;29.00;91.70
35633;DHT22;21754;48.216;-1.628;2022-08-20T17:33:07;29.00;92.50
35633;DHT22;21754;48.216;-1.628;2022-08-20T17:35:47;28.90;93.40
35633;DHT22;21754;48.216;-1.628;2022-08-20T17:38:33;28.90;93.00
35633;DHT22;21754;48.216;-1.628;2022-08-20T17:41:08;28.70;91.00
35633;DHT22;21754;48.216;-1.628;2022-08-20T17:43:34;28.60;91.20
35633;DHT22;21754;48.216;-1.628;2022-08-20T17:46:05;28.50;92.60
35633;DHT22;21754;48.216;-1.628;2022-08-20T17:48:43;28.50;91.50
35633;DHT22;21754;48.216;-1.628;2022-08-20T17:51:23;28.30;93.40
35633;DHT22;21754;48.216;-1.628;2022-08-20T17:53:55;28.20;92.80
35633;DHT22;21754;48.216;-1.628;2022-08-20T17:56:32;28.20;93.90
35633;DHT22;21754;48.216;-1.628;2022-08-20T17:59:46;28.20;94.30
35633;DHT22;21754;48.216;-1.628;2022-08-20T18:01:54;28.10;95.20
35633;DHT22;21754;48.216;-1.628;2022-08-20T18:04:22;28.10;95.40
35633;DHT22;21754;48.216;-1.628;2022-08-20T18:07:06;28.10;95.40
35633;DHT22;21754;48.216;-1.628;2022-08-20T18:09:56;28.00;96.00
35633;DHT22;21754;48.216;-1.628;2022-08-20T18:15:20;28.00;96.60
35633;DHT22;21754;48.216;-1.628;2022-08-20T18:23:02;27.80;97.20
35633;DHT22;21754;48.216;-1.628;2022-08-20T18:25:51;27.70;96.60
35633;DHT22;21754;48.216;-1.628;2022-08-20T18:28:22;27.70;97.20
35633;DHT22;21754;48.216;-1.628;2022-08-20T18:30:56;27.50;97.30
35633;DHT22;21754;48.216;-1.628;2022-08-20T18:38:54;26.60;96.20
35633;DHT22;21754;48.216;-1.628;2022-08-20T18:46:28;25.80;99.90
35633;DHT22;21754;48.216;-1.628;2022-08-20T18:48:59;25.60;99.90
35633;DHT22;21754;48.216;-1.628;2022-08-20T18:51:39;25.40;99.90
35633;DHT22;21754;48.216;-1.628;2022-08-20T18:54:05;25.30;99.90
35633;DHT22;21754;48.216;-1.628;2022-08-20T18:56:38;25.10;99.90
35633;DHT22;21754;48.216;-1.628;2022-08-20T18:59:17;25.00;99.90
35633;DHT22;21754;48.216;-1.628;2022-08-20T19:01:46;24.90;99.90
35633;DHT22;21754;48.216;-1.628;2022-08-20T19:04:30;24.90;99.90
35633;DHT22;21754;48.216;-1.628;2022-08-20T19:07:01;24.80;99.90
35633;DHT22;21754;48.216;-1.628;2022-08-20T19:12:25;24.70;99.90
35633;DHT22;21754;48.216;-1.628;2022-08-20T19:14:57;24.70;99.90
35633;DHT22;21754;48.216;-1.628;2022-08-20T19:20:26;24.70;99.90
35633;DHT22;21754;48.216;-1.628;2022-08-20T19:22:52;24.70;99.90
35633;DHT22;21754;48.216;-1.628;2022-08-20T19:25:23;24.70;99.90
35633;DHT22;21754;48.216;-1.628;2022-08-20T19:27:49;24.50;99.90
35633;DHT22;21754;48.216;-1.628;2022-08-20T19:30:30;24.40;99.90
35633;DHT22;21754;48.216;-1.628;2022-08-20T19:32:57;24.20;99.90
35633;DHT22;21754;48.216;-1.628;2022-08-20T19:35:23;24.10;99.90
35633;DHT22;21754;48.216;-1.628;2022-08-20T19:37:49;24.00;99.90
35633;DHT22;21754;48.216;-1.628;2022-08-20T19:40:35;23.90;99.90
35633;DHT22;21754;48.216;-1.628;2022-08-20T19:43:05;23.70;99.90
35633;DHT22;21754;48.216;-1.628;2022-08-20T19:45:44;23.70;99.90
35633;DHT22;21754;48.216;-1.628;2022-08-20T19:53:49;23.60;99.90
35633;DHT22;21754;48.216;-1.628;2022-08-20T19:56:18;23.50;99.90
35633;DHT22;21754;48.216;-1.628;2022-08-20T19:58:45;23.50;99.90
35633;DHT22;21754;48.216;-1.628;2022-08-20T20:01:21;23.50;99.90
35633;DHT22;21754;48.216;-1.628;2022-08-20T20:04:01;23.30;99.90
35633;DHT22;21754;48.216;-1.628;2022-08-20T20:06:28;23.30;99.90
35633;DHT22;21754;48.216;-1.628;2022-08-20T20:09:05;23.20;99.90
35633;DHT22;21754;48.216;-1.628;2022-08-20T20:11:46;23.10;99.90
35633;DHT22;21754;48.216;-1.628;2022-08-20T20:14:14;23.10;99.90
35633;DHT22;21754;48.216;-1.628;2022-08-20T20:16:42;23.20;99.90
35633;DHT22;21754;48.216;-1.628;2022-08-20T20:19:10;23.20;99.90
35633;DHT22;21754;48.216;-1.628;2022-08-20T20:21:43;23.20;99.90
35633;DHT22;21754;48.216;-1.628;2022-08-20T20:24:10;23.20;99.90
35633;DHT22;21754;48.216;-1.628;2022-08-20T20:26:40;23.20;99.90
35633;DHT22;21754;48.216;-1.628;2022-08-20T20:29:07;23.10;99.90
35633;DHT22;21754;48.216;-1.628;2022-08-20T20:34:16;22.80;99.90
35633;DHT22;21754;48.216;-1.628;2022-08-20T20:36:45;22.70;99.90
35633;DHT22;21754;48.216;-1.628;2022-08-20T20:39:35;22.70;99.90
35633;DHT22;21754;48.216;-1.628;2022-08-20T20:42:07;22.80;99.90
35633;DHT22;21754;48.216;-1.628;2022-08-20T20:44:36;22.90;99.90
35633;DHT22;21754;48.216;-1.628;2022-08-20T20:47:05;22.90;99.90
35633;DHT22;21754;48.216;-1.628;2022-08-20T20:49:47;22.90;99.90
35633;DHT22;21754;48.216;-1.628;2022-08-20T20:52:34;22.80;99.90
35633;DHT22;21754;48.216;-1.628;2022-08-20T20:57:48;22.60;99.90
35633;DHT22;21754;48.216;-1.628;2022-08-20T21:00:15;22.60;99.90
35633;DHT22;21754;48.216;-1.628;2022-08-20T21:02:45;22.60;99.90
35633;DHT22;21754;48.216;-1.628;2022-08-20T21:05:13;22.60;99.90
35633;DHT22;21754;48.216;-1.628;2022-08-20T21:07:55;22.50;99.90
35633;DHT22;21754;48.216;-1.628;2022-08-20T21:10:24;22.50;99.90
35633;DHT22;21754;48.216;-1.628;2022-08-20T21:12:51;22.50;99.90
35633;DHT22;21754;48.216;-1.628;2022-08-20T21:15:17;22.50;99.90
35633;DHT22;21754;48.216;-1.628;2022-08-20T21:17:42;22.50;99.90
35633;DHT22;21754;48.216;-1.628;2022-08-20T21:20:09;22.50;99.90
35633;DHT22;21754;48.216;-1.628;2022-08-20T21:22:35;22.40;99.90
35633;DHT22;21754;48.216;-1.628;2022-08-20T21:25:02;22.30;99.90
35633;DHT22;21754;48.216;-1.628;2022-08-20T21:27:29;22.20;99.90
35633;DHT22;21754;48.216;-1.628;2022-08-20T21:29:55;22.20;99.90
35633;DHT22;21754;48.216;-1.628;2022-08-20T21:32:20;22.00;99.90
35633;DHT22;21754;48.216;-1.628;2022-08-20T21:34:47;21.90;99.90
35633;DHT22;21754;48.216;-1.628;2022-08-20T21:37:13;21.70;99.90
35633;DHT22;21754;48.216;-1.628;2022-08-20T21:39:39;21.60;99.90
35633;DHT22;21754;48.216;-1.628;2022-08-20T21:42:08;21.60;99.90
35633;DHT22;21754;48.216;-1.628;2022-08-20T21:44:35;21.60;99.90
35633;DHT22;21754;48.216;-1.628;2022-08-20T21:47:02;21.50;99.90
35633;DHT22;21754;48.216;-1.628;2022-08-20T21:49:30;21.40;99.90
35633;DHT22;21754;48.216;-1.628;2022-08-20T21:51:56;21.50;99.90
35633;DHT22;21754;48.216;-1.628;2022-08-20T21:54:23;21.50;99.90
35633;DHT22;21754;48.216;-1.628;2022-08-20T21:57:11;21.50;99.90
35633;DHT22;21754;48.216;-1.628;2022-08-20T21:59:38;21.40;99.90
35633;DHT22;21754;48.216;-1.628;2022-08-20T22:04:31;21.30;99.90
35633;DHT22;21754;48.216;-1.628;2022-08-20T22:09:23;21.20;99.90
35633;DHT22;21754;48.216;-1.628;2022-08-20T22:11:49;21.20;99.90
35633;DHT22;21754;48.216;-1.628;2022-08-20T22:14:16;21.20;99.90
35633;DHT22;21754;48.216;-1.628;2022-08-20T22:16:42;21.20;99.90
35633;DHT22;21754;48.216;-1.628;2022-08-20T22:43:31;21.20;99.90
35633;DHT22;21754;48.216;-1.628;2022-08-20T22:45:59;21.10;99.90
35633;DHT22;21754;48.216;-1.628;2022-08-20T22:48:25;21.10;99.90
35633;DHT22;21754;48.216;-1.628;2022-08-20T22:50:51;21.10;99.90
35633;DHT22;21754;48.216;-1.628;2022-08-20T22:53:18;21.10;99.90
35633;DHT22;21754;48.216;-1.628;2022-08-20T22:55:45;21.00;99.90
35633;DHT22;21754;48.216;-1.628;2022-08-20T22:58:11;21.00;99.90
35633;DHT22;21754;48.216;-1.628;2022-08-20T23:00:37;21.00;99.90
35633;DHT22;21754;48.216;-1.628;2022-08-20T23:03:04;21.00;99.90
35633;DHT22;21754;48.216;-1.628;2022-08-20T23:05:33;21.00;99.90
35633;DHT22;21754;48.216;-1.628;2022-08-20T23:08:00;21.00;99.90
35633;DHT22;21754;48.216;-1.628;2022-08-20T23:10:27;20.90;99.90
35633;DHT22;21754;48.216;-1.628;2022-08-20T23:12:53;20.90;99.90
35633;DHT22;21754;48.216;-1.628;2022-08-20T23:15:19;20.90;99.90
35633;DHT22;21754;48.216;-1.628;2022-08-20T23:17:45;20.90;99.90
35633;DHT22;21754;48.216;-1.628;2022-08-20T23:20:14;20.90;99.90
35633;DHT22;21754;48.216;-1.628;2022-08-20T23:22:41;20.90;99.90
35633;DHT22;21754;48.216;-1.628;2022-08-20T23:32:34;20.80;99.90
35633;DHT22;21754;48.216;-1.628;2022-08-20T23:35:00;20.70;99.90
35633;DHT22;21754;48.216;-1.628;2022-08-20T23:37:25;20.70;99.90
35633;DHT22;21754;48.216;-1.628;2022-08-20T23:39:51;20.70;99.90
35633;DHT22;21754;48.216;-1.628;2022-08-20T23:42:17;20.70;99.90
35633;DHT22;21754;48.216;-1.628;2022-08-20T23:44:43;20.60;99.90
35633;DHT22;21754;48.216;-1.628;2022-08-20T23:47:10;20.60;99.90
35633;DHT22;21754;48.216;-1.628;2022-08-20T23:49:37;20.60;99.90
35633;DHT22;21754;48.216;-1.628;2022-08-20T23:52:03;20.50;99.90
35633;DHT22;21754;48.216;-1.628;2022-08-20T23:54:32;20.50;99.90
35633;DHT22;21754;48.216;-1.628;2022-08-20T23:56:58;20.50;99.90
35633;DHT22;21754;48.216;-1.628;2022-08-20T23:59:24;20.40;99.90
